JAL912 RJOO-RJFK
Flight info
| Callsign | JAL912 |
|---|---|
| Flight time | 0h 53m |
| Altitude | 40000 |
| Route | TIGER MAIKO AWAJI Y232 KRE Y756 VIRUD Y757 SPICA |
| Aircraft | A359/H-SDE2E3GHIJ3J4J5LM1ORWXY/LB1D1 |
Departure
| Time | 2026-04-27 13:14 |
|---|---|
| Airport | Osaka Itami International Airport (RJOO) |
Arrival
| Time | 2026-04-27 14:07 |
|---|---|
| Airport | Kagoshima Airport (RJFK) |
| Time | Latitude | Longitude | Altitude | Speed | Heading |
|---|---|---|---|---|---|
| 2026-04-27 12:47 | 34.79119 | 135.43917 | 57 ft | 0 kts | 73° |
| 2026-04-27 12:47 | 34.79125 | 135.43914 | 56 ft | 0 kts | 66° |
| 2026-04-27 13:01 | 34.79116 | 135.43888 | 48 ft | 4 kts | 66° |
| 2026-04-27 13:01 | 34.79105 | 135.43858 | 48 ft | 4 kts | 66° |
| 2026-04-27 13:02 | 34.79094 | 135.43827 | 50 ft | 4 kts | 66° |
| 2026-04-27 13:02 | 34.79083 | 135.43798 | 48 ft | 4 kts | 68° |
| 2026-04-27 13:02 | 34.79075 | 135.43767 | 48 ft | 4 kts | 79° |
| 2026-04-27 13:02 | 34.79073 | 135.43735 | 48 ft | 4 kts | 108° |
| 2026-04-27 13:03 | 34.79085 | 135.43712 | 48 ft | 4 kts | 135° |
| 2026-04-27 13:03 | 34.79105 | 135.43689 | 48 ft | 4 kts | 135° |
| 2026-04-27 13:03 | 34.79124 | 135.43666 | 48 ft | 4 kts | 135° |
| 2026-04-27 13:03 | 34.79136 | 135.43651 | 48 ft | 0 kts | 135° |
| 2026-04-27 13:07 | 34.79127 | 135.43663 | 48 ft | 6 kts | 133° |
| 2026-04-27 13:07 | 34.79091 | 135.43704 | 48 ft | 8 kts | 142° |
| 2026-04-27 13:07 | 34.79035 | 135.43724 | 51 ft | 10 kts | 172° |
| 2026-04-27 13:07 | 34.78958 | 135.43753 | 47 ft | 14 kts | 150° |
| 2026-04-27 13:08 | 34.78873 | 135.43847 | 49 ft | 18 kts | 133° |
| 2026-04-27 13:08 | 34.78781 | 135.43963 | 49 ft | 20 kts | 136° |
| 2026-04-27 13:08 | 34.78674 | 135.44090 | 47 ft | 22 kts | 135° |
| 2026-04-27 13:08 | 34.78561 | 135.44226 | 51 ft | 24 kts | 135° |
| 2026-04-27 13:09 | 34.78430 | 135.44340 | 50 ft | 21 kts | 168° |
| 2026-04-27 13:09 | 34.78281 | 135.44334 | 48 ft | 21 kts | 186° |
| 2026-04-27 13:09 | 34.78162 | 135.44367 | 50 ft | 16 kts | 143° |
| 2026-04-27 13:09 | 34.78078 | 135.44455 | 49 ft | 17 kts | 136° |
| 2026-04-27 13:10 | 34.77989 | 135.44558 | 52 ft | 19 kts | 136° |
| 2026-04-27 13:10 | 34.77896 | 135.44675 | 54 ft | 20 kts | 134° |
| 2026-04-27 13:10 | 34.77792 | 135.44805 | 50 ft | 22 kts | 134° |
| 2026-04-27 13:10 | 34.77673 | 135.44928 | 51 ft | 22 kts | 152° |
| 2026-04-27 13:11 | 34.77529 | 135.45009 | 51 ft | 22 kts | 162° |
| 2026-04-27 13:11 | 34.77420 | 135.44970 | 53 ft | 13 kts | 230° |
| 2026-04-27 13:11 | 34.77421 | 135.44939 | 53 ft | 1 kts | 313° |
| 2026-04-27 13:11 | 34.77422 | 135.44939 | 53 ft | 0 kts | 315° |
| 2026-04-27 13:14 | 34.77507 | 135.44834 | 48 ft | 53 kts | 314° |
| 2026-04-27 13:14 | 34.77957 | 135.44292 | 47 ft | 126 kts | 315° |
| 2026-04-27 13:14 | 34.78728 | 135.43345 | 171 ft | 175 kts | 315° |
| 2026-04-27 13:14 | 34.79595 | 135.42369 | 973 ft | 168 kts | 327° |
| 2026-04-27 13:15 | 34.80408 | 135.41284 | 1520 ft | 190 kts | 292° |
| 2026-04-27 13:15 | 34.80412 | 135.39576 | 1770 ft | 224 kts | 249° |
| 2026-04-27 13:15 | 34.79345 | 135.38093 | 2230 ft | 247 kts | 208° |
| 2026-04-27 13:15 | 34.77659 | 135.37705 | 3135 ft | 252 kts | 178° |
| 2026-04-27 13:16 | 34.75878 | 135.37807 | 3935 ft | 260 kts | 181° |
| 2026-04-27 13:16 | 34.74042 | 135.37721 | 4710 ft | 267 kts | 188° |
| 2026-04-27 13:16 | 34.72176 | 135.37444 | 5528 ft | 273 kts | 191° |
| 2026-04-27 13:16 | 34.70318 | 135.37042 | 6368 ft | 278 kts | 196° |
| 2026-04-27 13:17 | 34.68563 | 135.36100 | 7189 ft | 276 kts | 220° |
| 2026-04-27 13:17 | 34.67351 | 135.34343 | 8167 ft | 271 kts | 246° |
| 2026-04-27 13:17 | 34.66672 | 135.32221 | 9154 ft | 272 kts | 253° |
| 2026-04-27 13:17 | 34.65777 | 135.30174 | 10083 ft | 277 kts | 237° |
| 2026-04-27 13:18 | 34.64609 | 135.28241 | 10691 ft | 294 kts | 234° |
| 2026-04-27 13:18 | 34.63299 | 135.26210 | 11077 ft | 317 kts | 234° |
| 2026-04-27 13:18 | 34.61893 | 135.24061 | 11615 ft | 330 kts | 234° |
| 2026-04-27 13:18 | 34.60453 | 135.21870 | 12482 ft | 333 kts | 234° |
| 2026-04-27 13:19 | 34.59024 | 135.19698 | 13426 ft | 334 kts | 234° |
| 2026-04-27 13:19 | 34.57574 | 135.17493 | 14318 ft | 335 kts | 234° |
| 2026-04-27 13:19 | 34.56112 | 135.15270 | 15079 ft | 339 kts | 235° |
| 2026-04-27 13:19 | 34.54633 | 135.13020 | 15828 ft | 343 kts | 235° |
| 2026-04-27 13:20 | 34.53136 | 135.10745 | 16572 ft | 347 kts | 235° |
| 2026-04-27 13:20 | 34.51622 | 135.08444 | 17354 ft | 350 kts | 235° |
| 2026-04-27 13:20 | 34.50098 | 135.06131 | 18138 ft | 353 kts | 236° |
| 2026-04-27 13:20 | 34.48556 | 135.03792 | 18801 ft | 356 kts | 236° |
| 2026-04-27 13:21 | 34.47008 | 135.01446 | 19512 ft | 358 kts | 236° |
| 2026-04-27 13:21 | 34.45469 | 134.99116 | 20247 ft | 359 kts | 237° |
| 2026-04-27 13:21 | 34.43904 | 134.96747 | 20985 ft | 361 kts | 237° |
| 2026-04-27 13:21 | 34.42333 | 134.94369 | 21741 ft | 363 kts | 237° |
| 2026-04-27 13:22 | 34.40752 | 134.91978 | 22513 ft | 364 kts | 237° |
| 2026-04-27 13:22 | 34.39163 | 134.89578 | 23225 ft | 366 kts | 238° |
| 2026-04-27 13:22 | 34.37570 | 134.87174 | 23914 ft | 368 kts | 238° |
| 2026-04-27 13:22 | 34.35964 | 134.84751 | 24470 ft | 370 kts | 238° |
| 2026-04-27 13:23 | 34.34342 | 134.82305 | 25008 ft | 373 kts | 238° |
| 2026-04-27 13:23 | 34.32720 | 134.79861 | 25659 ft | 374 kts | 238° |
| 2026-04-27 13:23 | 34.31086 | 134.77399 | 26279 ft | 376 kts | 238° |
| 2026-04-27 13:23 | 34.29469 | 134.74966 | 26855 ft | 378 kts | 238° |
| 2026-04-27 13:24 | 34.27819 | 134.72484 | 27427 ft | 379 kts | 238° |
| 2026-04-27 13:24 | 34.26150 | 134.69982 | 27936 ft | 384 kts | 238° |
| 2026-04-27 13:24 | 34.24441 | 134.67483 | 28432 ft | 387 kts | 238° |
| 2026-04-27 13:24 | 34.22701 | 134.64989 | 28998 ft | 390 kts | 237° |
| 2026-04-27 13:25 | 34.20938 | 134.62482 | 29534 ft | 393 kts | 237° |
| 2026-04-27 13:25 | 34.19160 | 134.59992 | 30185 ft | 392 kts | 237° |
| 2026-04-27 13:25 | 34.17375 | 134.57473 | 30462 ft | 397 kts | 237° |
| 2026-04-27 13:25 | 34.15610 | 134.54940 | 30727 ft | 402 kts | 238° |
| 2026-04-27 13:26 | 34.13809 | 134.52346 | 31137 ft | 405 kts | 238° |
| 2026-04-27 13:26 | 34.11993 | 134.49737 | 31553 ft | 407 kts | 237° |
| 2026-04-27 13:26 | 34.10165 | 134.47118 | 31940 ft | 409 kts | 237° |
| 2026-04-27 13:26 | 34.08328 | 134.44490 | 32315 ft | 411 kts | 237° |
| 2026-04-27 13:27 | 34.06476 | 134.41847 | 32683 ft | 413 kts | 237° |
| 2026-04-27 13:27 | 34.04618 | 134.39197 | 33013 ft | 415 kts | 237° |
| 2026-04-27 13:27 | 34.02749 | 134.36536 | 33369 ft | 416 kts | 237° |
| 2026-04-27 13:27 | 34.00872 | 134.33868 | 33883 ft | 413 kts | 238° |
| 2026-04-27 13:28 | 33.99041 | 134.31258 | 34215 ft | 411 kts | 237° |
| 2026-04-27 13:28 | 33.97171 | 134.28671 | 34633 ft | 410 kts | 237° |
| 2026-04-27 13:28 | 33.95310 | 134.26051 | 34752 ft | 413 kts | 237° |
| 2026-04-27 13:28 | 33.93459 | 134.23402 | 35045 ft | 413 kts | 238° |
| 2026-04-27 13:29 | 33.91627 | 134.20748 | 35411 ft | 413 kts | 238° |
| 2026-04-27 13:29 | 33.89783 | 134.18095 | 35744 ft | 413 kts | 238° |
| 2026-04-27 13:29 | 33.87929 | 134.15452 | 36013 ft | 415 kts | 237° |
| 2026-04-27 13:29 | 33.86059 | 134.12807 | 36354 ft | 414 kts | 237° |
| 2026-04-27 13:30 | 33.84217 | 134.10214 | 36687 ft | 413 kts | 237° |
| 2026-04-27 13:30 | 33.82355 | 134.07614 | 37073 ft | 410 kts | 237° |
| 2026-04-27 13:30 | 33.80496 | 134.05005 | 37243 ft | 412 kts | 237° |
| 2026-04-27 13:30 | 33.78634 | 134.02381 | 37489 ft | 413 kts | 237° |
| 2026-04-27 13:31 | 33.77402 | 134.00643 | 37637 ft | 412 kts | 237° |
| 2026-04-27 13:31 | 33.74936 | 133.97141 | 37934 ft | 408 kts | 237° |
| 2026-04-27 13:31 | 33.71232 | 133.91950 | 37962 ft | 412 kts | 237° |
| 2026-04-27 13:32 | 33.67530 | 133.86749 | 37983 ft | 413 kts | 237° |
| 2026-04-27 13:32 | 33.63791 | 133.81490 | 37981 ft | 414 kts | 237° |
| 2026-04-27 13:33 | 33.60047 | 133.76238 | 37925 ft | 414 kts | 237° |
| 2026-04-27 13:33 | 33.56927 | 133.71864 | 37952 ft | 416 kts | 237° |
| 2026-04-27 13:34 | 33.53019 | 133.65409 | 37952 ft | 407 kts | 246° |
| 2026-04-27 13:34 | 33.50231 | 133.59514 | 37970 ft | 406 kts | 248° |
| 2026-04-27 13:35 | 33.47981 | 133.54590 | 37969 ft | 406 kts | 248° |
| 2026-04-27 13:35 | 33.44801 | 133.47623 | 37972 ft | 409 kts | 247° |
| 2026-04-27 13:36 | 33.41984 | 133.41757 | 37984 ft | 413 kts | 243° |
| 2026-04-27 13:36 | 33.38868 | 133.37282 | 37972 ft | 422 kts | 234° |
| 2026-04-27 13:37 | 33.34659 | 133.32401 | 37984 ft | 427 kts | 232° |
| 2026-04-27 13:37 | 33.30304 | 133.27548 | 37975 ft | 428 kts | 231° |
| 2026-04-27 13:38 | 33.25949 | 133.22696 | 38008 ft | 428 kts | 232° |
| 2026-04-27 13:38 | 33.21597 | 133.17830 | 37985 ft | 429 kts | 232° |
| 2026-04-27 13:39 | 33.17283 | 133.12988 | 37980 ft | 429 kts | 232° |
| 2026-04-27 13:39 | 33.12939 | 133.08104 | 37971 ft | 430 kts | 232° |
| 2026-04-27 13:40 | 33.07874 | 133.02434 | 37996 ft | 429 kts | 231° |
| 2026-04-27 13:40 | 33.04230 | 132.98375 | 37990 ft | 429 kts | 231° |
| 2026-04-27 13:41 | 32.99893 | 132.93541 | 37986 ft | 430 kts | 231° |
| 2026-04-27 13:41 | 32.95531 | 132.88681 | 37982 ft | 430 kts | 231° |
| 2026-04-27 13:42 | 32.91160 | 132.83820 | 37981 ft | 430 kts | 231° |
| 2026-04-27 13:42 | 32.86792 | 132.78968 | 37981 ft | 430 kts | 231° |
| 2026-04-27 13:43 | 32.82418 | 132.74115 | 37985 ft | 431 kts | 231° |
| 2026-04-27 13:43 | 32.78063 | 132.69294 | 37987 ft | 431 kts | 231° |
| 2026-04-27 13:44 | 32.73673 | 132.64443 | 37984 ft | 431 kts | 231° |
| 2026-04-27 13:44 | 32.69286 | 132.59592 | 37991 ft | 431 kts | 231° |
| 2026-04-27 13:45 | 32.64893 | 132.54742 | 37987 ft | 431 kts | 231° |
| 2026-04-27 13:45 | 32.60500 | 132.49898 | 37987 ft | 432 kts | 231° |
| 2026-04-27 13:46 | 32.56124 | 132.45081 | 37981 ft | 433 kts | 230° |
| 2026-04-27 13:46 | 32.51702 | 132.40221 | 38001 ft | 434 kts | 231° |
| 2026-04-27 13:47 | 32.47264 | 132.35353 | 37991 ft | 435 kts | 231° |
| 2026-04-27 13:47 | 32.42849 | 132.30521 | 37250 ft | 430 kts | 230° |
| 2026-04-27 13:48 | 32.40633 | 132.28093 | 36249 ft | 436 kts | 230° |
| 2026-04-27 13:48 | 32.38402 | 132.25639 | 35301 ft | 440 kts | 231° |
| 2026-04-27 13:48 | 32.36391 | 132.23002 | 34419 ft | 435 kts | 239° |
| 2026-04-27 13:48 | 32.34676 | 132.20072 | 33487 ft | 435 kts | 243° |
| 2026-04-27 13:49 | 32.33035 | 132.17055 | 32496 ft | 437 kts | 244° |
| 2026-04-27 13:49 | 32.31430 | 132.13994 | 31461 ft | 439 kts | 244° |
| 2026-04-27 13:49 | 32.29831 | 132.10893 | 30420 ft | 444 kts | 244° |
| 2026-04-27 13:49 | 32.28224 | 132.07765 | 29351 ft | 446 kts | 244° |
| 2026-04-27 13:50 | 32.26608 | 132.04633 | 28333 ft | 442 kts | 243° |
| 2026-04-27 13:50 | 32.25019 | 132.01577 | 26899 ft | 433 kts | 243° |
| 2026-04-27 13:50 | 32.23445 | 131.98557 | 25603 ft | 432 kts | 242° |
| 2026-04-27 13:50 | 32.21877 | 131.95555 | 24993 ft | 426 kts | 242° |
| 2026-04-27 13:51 | 32.20330 | 131.92601 | 24362 ft | 420 kts | 241° |
| 2026-04-27 13:51 | 32.18806 | 131.89692 | 23765 ft | 415 kts | 241° |
| 2026-04-27 13:51 | 32.17317 | 131.86852 | 23092 ft | 410 kts | 241° |
| 2026-04-27 13:51 | 32.15826 | 131.84012 | 22431 ft | 404 kts | 241° |
| 2026-04-27 13:52 | 32.14357 | 131.81223 | 21774 ft | 398 kts | 241° |
| 2026-04-27 13:52 | 32.12907 | 131.78465 | 21154 ft | 392 kts | 241° |
| 2026-04-27 13:52 | 32.11481 | 131.75748 | 20531 ft | 388 kts | 241° |
| 2026-04-27 13:52 | 32.10068 | 131.73056 | 19872 ft | 384 kts | 241° |
| 2026-04-27 13:53 | 32.07277 | 131.67749 | 18580 ft | 378 kts | 241° |
| 2026-04-27 13:53 | 32.05957 | 131.65243 | 17924 ft | 375 kts | 241° |
| 2026-04-27 13:53 | 32.04548 | 131.62570 | 17226 ft | 372 kts | 241° |
| 2026-04-27 13:54 | 32.03191 | 131.59997 | 16562 ft | 368 kts | 240° |
| 2026-04-27 13:54 | 32.01846 | 131.57449 | 15920 ft | 365 kts | 240° |
| 2026-04-27 13:54 | 32.00508 | 131.54918 | 15270 ft | 362 kts | 240° |
| 2026-04-27 13:54 | 31.99180 | 131.52405 | 14615 ft | 360 kts | 240° |
| 2026-04-27 13:55 | 31.97859 | 131.49908 | 13979 ft | 359 kts | 240° |
| 2026-04-27 13:55 | 31.96541 | 131.47417 | 13277 ft | 357 kts | 240° |
| 2026-04-27 13:55 | 31.95236 | 131.44955 | 12632 ft | 353 kts | 240° |
| 2026-04-27 13:55 | 31.93951 | 131.42541 | 11982 ft | 351 kts | 240° |
| 2026-04-27 13:56 | 31.92655 | 131.40120 | 11324 ft | 348 kts | 240° |
| 2026-04-27 13:56 | 31.91372 | 131.37717 | 10760 ft | 344 kts | 240° |
| 2026-04-27 13:56 | 31.90130 | 131.35396 | 10652 ft | 327 kts | 240° |
| 2026-04-27 13:56 | 31.88948 | 131.33191 | 10543 ft | 310 kts | 240° |
| 2026-04-27 13:57 | 31.87829 | 131.31102 | 10433 ft | 294 kts | 240° |
| 2026-04-27 13:57 | 31.86765 | 131.29114 | 10341 ft | 280 kts | 240° |
| 2026-04-27 13:57 | 31.85752 | 131.27224 | 10236 ft | 267 kts | 240° |
| 2026-04-27 13:57 | 31.84794 | 131.25438 | 10126 ft | 257 kts | 240° |
| 2026-04-27 13:58 | 31.83847 | 131.23666 | 9920 ft | 257 kts | 240° |
| 2026-04-27 13:58 | 31.82878 | 131.21844 | 9563 ft | 271 kts | 240° |
| 2026-04-27 13:58 | 31.81861 | 131.19944 | 9313 ft | 277 kts | 240° |
| 2026-04-27 13:58 | 31.80831 | 131.18031 | 8972 ft | 276 kts | 239° |
| 2026-04-27 13:59 | 31.79798 | 131.16113 | 8455 ft | 278 kts | 239° |
| 2026-04-27 13:59 | 31.78769 | 131.14202 | 8061 ft | 276 kts | 239° |
| 2026-04-27 13:59 | 31.77746 | 131.12303 | 7681 ft | 274 kts | 239° |
| 2026-04-27 13:59 | 31.76727 | 131.10411 | 7334 ft | 273 kts | 239° |
| 2026-04-27 14:00 | 31.75724 | 131.08549 | 6979 ft | 273 kts | 239° |
| 2026-04-27 14:00 | 31.74708 | 131.06664 | 6634 ft | 273 kts | 239° |
| 2026-04-27 14:00 | 31.73700 | 131.04784 | 6261 ft | 272 kts | 238° |
| 2026-04-27 14:00 | 31.72693 | 131.02906 | 5891 ft | 271 kts | 238° |
| 2026-04-27 14:01 | 31.71689 | 131.01037 | 5538 ft | 269 kts | 238° |
| 2026-04-27 14:01 | 31.70696 | 130.99187 | 5188 ft | 267 kts | 237° |
| 2026-04-27 14:01 | 31.69713 | 130.97358 | 4955 ft | 260 kts | 237° |
| 2026-04-27 14:01 | 31.68771 | 130.95607 | 4847 ft | 248 kts | 237° |
| 2026-04-27 14:02 | 31.67857 | 130.93908 | 4603 ft | 244 kts | 237° |
| 2026-04-27 14:02 | 31.67032 | 130.92178 | 4302 ft | 243 kts | 248° |
| 2026-04-27 14:02 | 31.66560 | 130.90271 | 4015 ft | 244 kts | 257° |
| 2026-04-27 14:02 | 31.66208 | 130.88340 | 3805 ft | 237 kts | 258° |
| 2026-04-27 14:03 | 31.66044 | 130.86476 | 3726 ft | 223 kts | 274° |
| 2026-04-27 14:03 | 31.66383 | 130.84780 | 3657 ft | 210 kts | 288° |
| 2026-04-27 14:03 | 31.66861 | 130.83210 | 3575 ft | 199 kts | 290° |
| 2026-04-27 14:03 | 31.67339 | 130.81703 | 3507 ft | 193 kts | 290° |
| 2026-04-27 14:04 | 31.68037 | 130.80433 | 3421 ft | 179 kts | 311° |
| 2026-04-27 14:04 | 31.68881 | 130.79389 | 3201 ft | 175 kts | 313° |
| 2026-04-27 14:04 | 31.69730 | 130.78374 | 2923 ft | 173 kts | 314° |
| 2026-04-27 14:04 | 31.70655 | 130.77489 | 2701 ft | 172 kts | 332° |
| 2026-04-27 14:05 | 31.71766 | 130.76975 | 2504 ft | 172 kts | 341° |
| 2026-04-27 14:05 | 31.72812 | 130.76391 | 2326 ft | 160 kts | 333° |
| 2026-04-27 14:05 | 31.73790 | 130.75901 | 2141 ft | 150 kts | 339° |
| 2026-04-27 14:05 | 31.74749 | 130.75523 | 1952 ft | 141 kts | 340° |
| 2026-04-27 14:06 | 31.75638 | 130.75072 | 1703 ft | 138 kts | 328° |
| 2026-04-27 14:06 | 31.76458 | 130.74500 | 1433 ft | 136 kts | 326° |
| 2026-04-27 14:06 | 31.77279 | 130.73961 | 1269 ft | 136 kts | 332° |
| 2026-04-27 14:06 | 31.78107 | 130.73414 | 1145 ft | 137 kts | 328° |
| 2026-04-27 14:07 | 31.78960 | 130.72882 | 964 ft | 139 kts | 330° |
| 2026-04-27 14:07 | 31.79761 | 130.72326 | 909 ft | 121 kts | 330° |
| 2026-04-27 14:07 | 31.80397 | 130.71891 | 912 ft | 93 kts | 330° |
| 2026-04-27 14:07 | 31.80742 | 130.71653 | 910 ft | 29 kts | 321° |
| 2026-04-27 14:08 | 31.80848 | 130.71490 | 905 ft | 6 kts | 282° |
| 2026-04-27 14:08 | 31.80848 | 130.71489 | 905 ft | 0 kts | 282° |
| 2026-04-27 14:08 | 31.80848 | 130.71465 | 904 ft | 7 kts | 266° |
| 2026-04-27 14:08 | 31.80824 | 130.71418 | 901 ft | 4 kts | 200° |
| 2026-04-27 14:09 | 31.80790 | 130.71420 | 900 ft | 6 kts | 166° |
| 2026-04-27 14:09 | 31.80740 | 130.71445 | 900 ft | 9 kts | 154° |
| 2026-04-27 14:09 | 31.80672 | 130.71486 | 900 ft | 12 kts | 151° |
| 2026-04-27 14:09 | 31.80589 | 130.71544 | 900 ft | 15 kts | 149° |
| 2026-04-27 14:10 | 31.80490 | 130.71609 | 900 ft | 17 kts | 151° |
| 2026-04-27 14:10 | 31.80383 | 130.71678 | 900 ft | 12 kts | 150° |
| 2026-04-27 14:10 | 31.80347 | 130.71702 | 900 ft | 7 kts | 151° |
| 2026-04-27 14:10 | 31.80296 | 130.71736 | 900 ft | 9 kts | 153° |
| 2026-04-27 14:11 | 31.80272 | 130.71726 | 900 ft | 4 kts | 219° |
| 2026-04-27 14:11 | 31.80245 | 130.71687 | 899 ft | 7 kts | 237° |
| 2026-04-27 14:11 | 31.80226 | 130.71650 | 899 ft | 3 kts | 239° |
| 2026-04-27 14:11 | 31.80221 | 130.71639 | 899 ft | 1 kts | 239° |
| 2026-04-27 14:12 | 31.80217 | 130.71632 | 899 ft | 0 kts | 239° |